CYGW

Kuujjuarapik Airport

Kuujjuarapik, Quebec, Canada
METAR CYGW 190600Z AUTO 18005KT 9SM FEW032 BKN039 M33/M36 A3024 RMK SLP243
Observed Flight Rules
Jan-19 @ 06:00 UTC (23 minutes ago) Visual Flight Rules
Wind Visibility Clouds
180° at 5 knots 9 miles
  • Few at 3,200' AGL
  • Broken at 3,900' AGL
Temperatures Readings
Current -33°C / -27°F
Dewpoint -36°C / -33°F
Humidity 74%
Altimeter 30.24" Hg
Pressure 1024.3 hPa
Elevation 12
METAR CYGW 190600Z AUTO 18005KT 9SM FEW032 BKN039 M33/M36 A3024 RMK SLP243
Observed Flight Rules
Jan-19 @ 06:00 UTC
(23 minutes ago)
VFR
Wind Visibility
180° at 5 knots 9 miles
Clouds
  • Few at 3,200' AGL
  • Broken at 3,900' AGL
Temperature Dewpoint
-33°C / -27°F -36°C / -33°F
Humidity Altimeter Pressure
74% 30.24" Hg 1024.3 hPa